Time;durP1;ratioP1;P1;durP2;ratioP2;P2;SDS_P1;SDS_P2;PMS_P1;PMS_P2;Temp;Humidity;BMP_temperature;BMP_pressure;BME280_temperature;BME280_humidity;BME280_pressure;Samples;Min_cycle;Max_cycle;Signal;HPM_P1;HPM_P2
2022/10/19 00:00:24;;;;;;;11.20;2.83;;;9.40;99.90;;;;;;5015126;28;20042;-73
2022/10/19 00:02:50;;;;;;;8.15;2.50;;;9.40;99.90;;;;;;5014606;28;20042;-72
2022/10/19 00:05:16;;;;;;;10.15;2.28;;;9.50;99.90;;;;;;5014117;28;20414;-72
2022/10/19 00:07:41;;;;;;;13.80;2.60;;;9.60;99.90;;;;;;5014533;28;20046;-72
2022/10/19 00:10:07;;;;;;;11.27;2.70;;;9.60;99.90;;;;;;5018641;28;20046;-73
2022/10/19 00:12:33;;;;;;;10.50;2.65;;;9.70;99.90;;;;;;5018390;28;20056;-74
2022/10/19 00:14:59;;;;;;;8.77;2.75;;;9.70;99.90;;;;;;5018889;28;20478;-71
2022/10/19 00:17:25;;;;;;;9.90;2.70;;;9.70;99.90;;;;;;5018301;28;20129;-72
2022/10/19 00:19:50;;;;;;;7.43;2.50;;;9.80;99.90;;;;;;5018196;28;20546;-73
2022/10/19 00:22:16;;;;;;;11.05;3.30;;;9.80;99.90;;;;;;5018273;28;20099;-72
2022/10/19 00:24:41;;;;;;;12.93;2.95;;;9.90;99.90;;;;;;5018135;28;20359;-72
2022/10/19 00:27:07;;;;;;;7.47;2.70;;;9.90;99.90;;;;;;5018183;28;20034;-73
2022/10/19 00:29:32;;;;;;;11.48;2.38;;;9.90;99.90;;;;;;5018189;28;20454;-72
2022/10/19 00:31:58;;;;;;;7.22;2.90;;;10.00;99.90;;;;;;5017612;28;20406;-74
2022/10/19 00:34:24;;;;;;;10.73;2.35;;;10.00;99.90;;;;;;5017187;28;20046;-73
2022/10/19 00:36:49;;;;;;;11.13;3.05;;;10.00;99.90;;;;;;5018608;28;20136;-74
2022/10/19 00:39:16;;;;;;;9.98;3.05;;;10.00;99.90;;;;;;5018341;28;20045;-74
2022/10/19 00:41:43;;;;;;;9.15;2.45;;;10.00;99.90;;;;;;5000919;28;20046;-73
2022/10/19 00:44:09;;;;;;;10.18;2.30;;;10.10;99.90;;;;;;5017688;28;20052;-71
2022/10/19 00:46:37;;;;;;;13.85;2.90;;;10.10;99.90;;;;;;5017698;28;20058;-70
2022/10/19 00:49:19;;;;;;;11.80;2.92;;;10.10;99.90;;;;;;5017461;28;20084;-71
2022/10/19 00:51:49;;;;;;;8.68;2.60;;;10.10;99.90;;;;;;5017950;28;20370;-70
2022/10/19 00:54:17;;;;;;;10.98;3.55;;;10.20;99.90;;;;;;5017612;28;20099;-70
2022/10/19 00:56:45;;;;;;;11.82;2.60;;;10.30;99.90;;;;;;5017535;28;20052;-70
2022/10/19 00:59:13;;;;;;;7.78;2.45;;;10.20;99.90;;;;;;5017550;28;20046;-70
2022/10/19 01:01:40;;;;;;;14.80;2.60;;;10.20;99.90;;;;;;5018093;28;20050;-69
2022/10/19 01:04:07;;;;;;;11.00;2.53;;;10.30;99.90;;;;;;5017476;28;20070;-73
2022/10/19 01:06:34;;;;;;;14.65;2.60;;;10.30;99.90;;;;;;5017880;28;20312;-73
2022/10/19 01:08:59;;;;;;;16.50;3.92;;;10.30;99.90;;;;;;5017555;28;20057;-73
2022/10/19 01:11:28;;;;;;;17.02;3.13;;;10.30;99.90;;;;;;5016279;28;20371;-73
2022/10/19 01:14:05;;;;;;;8.45;2.20;;;10.80;99.90;;;;;;5016872;28;20352;-73
2022/10/19 01:17:07;;;;;;;23.50;3.13;;;10.30;99.90;;;;;;5017194;28;20053;-73
2022/10/19 01:19:44;;;;;;;15.13;2.30;;;10.30;99.90;;;;;;5017190;28;20061;-73
2022/10/19 01:22:30;;;;;;;11.45;2.70;;;10.30;99.90;;;;;;5017610;28;20057;-73
2022/10/19 01:25:30;;;;;;;8.55;2.80;;;10.40;99.90;;;;;;5017506;28;20088;-73
2022/10/19 01:28:09;;;;;;;8.48;3.30;;;10.40;99.90;;;;;;5008129;28;20057;-73
2022/10/19 01:30:41;;;;;;;8.98;3.13;;;10.40;99.90;;;;;;5016914;28;20073;-73
2022/10/19 01:33:33;;;;;;;9.07;1.80;;;10.40;99.90;;;;;;5015590;28;20053;-73
2022/10/19 01:36:25;;;;;;;10.27;2.20;;;10.50;99.90;;;;;;4999976;28;20062;-73
2022/10/19 01:38:58;;;;;;;10.63;2.72;;;10.50;99.90;;;;;;5017076;28;20049;-72
2022/10/19 01:41:27;;;;;;;9.25;2.53;;;10.50;99.90;;;;;;5016768;28;20104;-73
2022/10/19 01:44:04;;;;;;;13.20;2.95;;;10.50;99.90;;;;;;5016506;28;20509;-72
2022/10/19 01:46:35;;;;;;;11.40;2.63;;;10.50;99.90;;;;;;5016613;28;20060;-72
2022/10/19 01:49:22;;;;;;;14.13;2.95;;;10.50;99.90;;;;;;5016629;28;20042;-71
2022/10/19 01:51:54;;;;;;;7.03;2.72;;;10.50;99.90;;;;;;5001700;28;20491;-70
2022/10/19 01:54:21;;;;;;;13.48;3.53;;;10.50;99.90;;;;;;5016412;28;20041;-70
2022/10/19 01:56:48;;;;;;;16.52;2.85;;;10.50;99.90;;;;;;5016404;28;20053;-73
2022/10/19 01:59:17;;;;;;;11.27;2.35;;;10.70;99.90;;;;;;5016390;28;20038;-73
2022/10/19 02:01:46;;;;;;;18.30;9.90;;;10.50;99.90;;;;;;5016393;28;20052;-74
2022/10/19 02:04:16;;;;;;;12.10;9.55;;;10.50;99.90;;;;;;5016862;28;20060;-73
2022/10/19 02:06:43;;;;;;;11.55;5.10;;;10.50;99.90;;;;;;5016062;28;20056;-74
2022/10/19 02:09:08;;;;;;;19.92;3.40;;;10.60;99.90;;;;;;5016869;28;20421;-74
2022/10/19 02:11:36;;;;;;;9.20;4.03;;;10.50;99.90;;;;;;5015749;28;20124;-72
2022/10/19 02:14:11;;;;;;;12.13;3.33;;;10.70;99.90;;;;;;5015413;28;20374;-72
2022/10/19 02:16:45;;;;;;;11.80;2.53;;;10.50;99.90;;;;;;5016647;28;20038;-70
2022/10/19 02:19:14;;;;;;;12.13;2.63;;;10.60;99.90;;;;;;5015928;28;20046;-71
2022/10/19 02:21:40;;;;;;;15.45;2.95;;;10.50;99.90;;;;;;5016009;28;20343;-70
2022/10/19 02:24:05;;;;;;;19.90;3.58;;;10.50;99.90;;;;;;5015730;28;20073;-69
2022/10/19 02:26:31;;;;;;;12.70;3.40;;;10.50;99.90;;;;;;5016422;28;20112;-70
2022/10/19 02:28:57;;;;;;;19.30;3.92;;;10.50;99.90;;;;;;5016018;28;20092;-69
2022/10/19 02:31:24;;;;;;;12.23;2.80;;;10.50;99.90;;;;;;5015707;28;20057;-73
2022/10/19 02:33:50;;;;;;;7.97;2.95;;;10.50;99.90;;;;;;5015530;28;20053;-72
2022/10/19 02:36:16;;;;;;;6.97;2.03;;;10.50;99.90;;;;;;5015469;28;20096;-73
2022/10/19 02:38:42;;;;;;;20.70;2.53;;;10.60;99.90;;;;;;5015772;28;20045;-73
2022/10/19 02:41:30;;;;;;;13.02;2.92;;;10.60;99.90;;;;;;5015150;28;20054;-73
2022/10/19 02:44:00;;;;;;;7.22;2.50;;;10.50;99.90;;;;;;5015727;28;20099;-72
2022/10/19 02:46:39;;;;;;;9.15;2.20;;;10.50;99.90;;;;;;5015439;28;20038;-74
2022/10/19 02:49:08;;;;;;;12.05;2.90;;;10.50;99.90;;;;;;5014583;28;20049;-72
2022/10/19 02:51:39;;;;;;;11.90;3.10;;;10.50;99.90;;;;;;5015696;28;20042;-72
2022/10/19 02:54:07;;;;;;;13.55;2.58;;;10.40;99.90;;;;;;5015360;28;20042;-73
2022/10/19 02:56:34;;;;;;;10.90;2.90;;;10.50;99.90;;;;;;5015200;28;20061;-72
2022/10/19 02:59:00;;;;;;;17.90;3.03;;;10.40;99.90;;;;;;5015334;28;20053;-73
2022/10/19 03:01:25;;;;;;;9.23;2.40;;;10.40;99.90;;;;;;5015588;28;20056;-73
2022/10/19 03:03:51;;;;;;;10.73;2.40;;;10.30;99.90;;;;;;5015358;28;20124;-73
2022/10/19 03:06:17;;;;;;;7.05;2.03;;;10.40;99.90;;;;;;5015253;28;20042;-74
2022/10/19 03:08:43;;;;;;;15.77;2.15;;;10.20;99.90;;;;;;5015094;28;20049;-72
2022/10/19 03:11:09;;;;;;;9.50;2.33;;;10.10;99.90;;;;;;5015287;28;20429;-73
2022/10/19 03:13:34;;;;;;;7.47;2.13;;;10.00;99.90;;;;;;5015132;28;20046;-72
2022/10/19 03:16:08;;;;;;;19.05;3.08;;;9.90;99.90;;;;;;5015638;28;20038;-73
2022/10/19 03:18:34;;;;;;;8.25;2.25;;;9.80;99.90;;;;;;5015534;28;20045;-72
2022/10/19 03:21:10;;;;;;;8.23;1.98;;;9.70;99.90;;;;;;5014983;28;20360;-72
2022/10/19 03:23:37;;;;;;;9.25;2.22;;;9.90;99.90;;;;;;5015059;28;20045;-73
2022/10/19 03:26:03;;;;;;;18.02;1.90;;;9.50;99.90;;;;;;5014955;28;20073;-72
2022/10/19 03:28:29;;;;;;;16.35;1.88;;;9.40;99.90;;;;;;5015639;28;20049;-73
2022/10/19 03:30:55;;;;;;;7.05;1.85;;;9.30;99.90;;;;;;5014842;28;20057;-73
2022/10/19 03:33:21;;;;;;;10.25;1.83;;;9.30;99.90;;;;;;5014947;28;20057;-73
2022/10/19 03:35:46;;;;;;;10.65;2.30;;;9.30;99.90;;;;;;5014996;28;20363;-72
2022/10/19 03:38:12;;;;;;;6.65;3.10;;;9.10;99.90;;;;;;5015120;28;20481;-73
2022/10/19 03:40:37;;;;;;;16.98;5.43;;;9.00;99.90;;;;;;5014862;28;20124;-70
2022/10/19 03:43:03;;;;;;;18.45;5.15;;;8.90;99.90;;;;;;5015442;28;20080;-70
2022/10/19 03:45:29;;;;;;;11.43;4.07;;;9.00;99.90;;;;;;5018840;28;20057;-70
2022/10/19 03:47:54;;;;;;;12.27;5.80;;;8.80;99.90;;;;;;5018705;28;20085;-69
2022/10/19 03:50:20;;;;;;;17.98;5.38;;;8.70;99.90;;;;;;5019031;28;20048;-71
2022/10/19 03:52:48;;;;;;;8.30;2.95;;;8.70;99.90;;;;;;5019357;28;20037;-73
2022/10/19 03:55:14;;;;;;;12.57;3.20;;;8.70;99.90;;;;;;5017955;28;20053;-73
2022/10/19 03:57:40;;;;;;;11.02;2.63;;;8.70;99.90;;;;;;5018590;28;20056;-72
2022/10/19 04:00:07;;;;;;;8.50;2.45;;;8.70;99.90;;;;;;5019131;28;20350;-71
2022/10/19 04:02:32;;;;;;;11.77;2.33;;;8.70;99.90;;;;;;5018618;28;20081;-70
2022/10/19 04:04:58;;;;;;;13.07;2.50;;;8.70;99.90;;;;;;5018699;28;20069;-70
2022/10/19 04:07:24;;;;;;;12.23;2.72;;;8.70;99.90;;;;;;5018628;28;20104;-71
2022/10/19 04:09:49;;;;;;;9.35;2.17;;;8.70;99.90;;;;;;5018145;28;20037;-71
2022/10/19 04:12:15;;;;;;;12.63;1.75;;;8.80;99.90;;;;;;5018482;28;20133;-70
2022/10/19 04:14:40;;;;;;;7.28;2.35;;;8.80;99.90;;;;;;5017972;28;20055;-71
2022/10/19 04:17:06;;;;;;;7.30;2.72;;;8.80;99.90;;;;;;5018922;28;20041;-70
2022/10/19 04:19:32;;;;;;;12.38;3.13;;;8.90;99.90;;;;;;5018216;28;20530;-71
2022/10/19 04:21:57;;;;;;;8.88;2.40;;;8.90;99.90;;;;;;5018023;28;20050;-71
2022/10/19 04:24:23;;;;;;;17.65;4.10;;;8.90;99.90;;;;;;5018142;28;20443;-70
2022/10/19 04:26:51;;;;;;;13.82;3.90;;;9.00;99.90;;;;;;5018608;28;20042;-70
2022/10/19 04:29:19;;;;;;;11.20;2.30;;;9.00;99.90;;;;;;5018567;28;20379;-70
2022/10/19 04:31:47;;;;;;;12.43;2.83;;;9.00;99.90;;;;;;5017783;28;20054;-70
2022/10/19 04:34:12;;;;;;;9.93;2.40;;;9.00;99.90;;;;;;5015789;28;20050;-71
2022/10/19 04:36:38;;;;;;;23.08;4.55;;;9.00;99.90;;;;;;5016805;28;20053;-71
2022/10/19 04:39:04;;;;;;;13.88;2.28;;;9.00;99.90;;;;;;5016073;28;20052;-70
2022/10/19 04:41:31;;;;;;;12.82;1.95;;;9.00;99.90;;;;;;5017188;28;20133;-73
2022/10/19 04:44:00;;;;;;;8.02;1.98;;;8.90;99.90;;;;;;5017029;28;20042;-72
2022/10/19 04:46:27;;;;;;;11.30;2.00;;;9.00;99.90;;;;;;5016592;28;20046;-72
2022/10/19 04:48:53;;;;;;;31.38;3.30;;;9.00;99.90;;;;;;5016564;28;20096;-73
2022/10/19 04:51:19;;;;;;;14.60;5.28;;;9.00;99.90;;;;;;5016508;28;20058;-72
2022/10/19 04:53:45;;;;;;;12.32;4.00;;;9.00;99.90;;;;;;5016086;28;20092;-73
2022/10/19 04:56:18;;;;;;;20.17;3.75;;;9.00;99.90;;;;;;5016510;28;20464;-73
2022/10/19 04:58:45;;;;;;;13.43;3.47;;;9.00;99.90;;;;;;5016357;28;20045;-72
2022/10/19 05:01:13;;;;;;;13.57;2.70;;;9.00;99.90;;;;;;5016365;28;20192;-73
2022/10/19 05:03:39;;;;;;;19.42;3.33;;;9.00;99.90;;;;;;5016909;28;20046;-73
2022/10/19 05:06:06;;;;;;;14.45;3.42;;;9.00;99.90;;;;;;5016197;28;20545;-74
2022/10/19 05:08:32;;;;;;;8.88;3.05;;;9.00;99.90;;;;;;5016234;28;20050;-74
2022/10/19 05:11:07;;;;;;;15.00;2.38;;;9.00;99.90;;;;;;5016237;28;20139;-72
2022/10/19 05:13:33;;;;;;;15.07;2.40;;;9.10;99.90;;;;;;5016367;28;20053;-73
2022/10/19 05:16:01;;;;;;;14.00;2.85;;;9.10;99.90;;;;;;5016118;28;20499;-72
2022/10/19 05:18:27;;;;;;;13.50;3.10;;;9.10;99.90;;;;;;5016286;28;20455;-73
2022/10/19 05:21:13;;;;;;;10.48;2.53;;;9.10;99.90;;;;;;5015340;28;20057;-73
2022/10/19 05:23:40;;;;;;;14.00;2.20;;;9.20;99.90;;;;;;5016059;28;20060;-73
2022/10/19 05:26:17;;;;;;;8.93;2.15;;;9.20;99.90;;;;;;5016336;28;20071;-73
2022/10/19 05:28:55;;;;;;;14.30;2.70;;;9.20;99.90;;;;;;5015950;28;20056;-72
2022/10/19 05:31:22;;;;;;;11.40;2.83;;;9.20;99.90;;;;;;5009982;28;105212;-73
2022/10/19 05:33:47;;;;;;;10.98;2.88;;;9.20;99.90;;;;;;5016247;28;20053;-72
2022/10/19 05:36:24;;;;;;;13.25;2.25;;;9.30;99.90;;;;;;5017155;28;20048;-73
2022/10/19 05:38:52;;;;;;;11.23;3.38;;;9.30;99.90;;;;;;5017368;28;20065;-73
2022/10/19 05:41:19;;;;;;;10.25;3.20;;;9.30;99.90;;;;;;5016761;28;20128;-72
2022/10/19 05:43:45;;;;;;;15.13;2.55;;;9.40;99.90;;;;;;5016637;28;20042;-74
2022/10/19 05:46:16;;;;;;;11.73;2.67;;;9.40;99.90;;;;;;5016645;28;20116;-73
2022/10/19 05:48:41;;;;;;;27.95;10.90;;;9.40;99.90;;;;;;5016422;28;20541;-73
2022/10/19 05:51:10;;;;;;;22.23;9.75;;;9.40;99.90;;;;;;5016072;28;20233;-74
2022/10/19 05:53:36;;;;;;;15.57;4.10;;;9.40;99.90;;;;;;5015549;28;20096;-73
2022/10/19 05:56:06;;;;;;;20.67;9.35;;;9.40;99.90;;;;;;5016656;28;20447;-73
2022/10/19 05:58:33;;;;;;;19.70;6.18;;;9.40;99.90;;;;;;5015457;28;20374;-73
2022/10/19 06:01:00;;;;;;;22.27;6.72;;;9.50;99.90;;;;;;5016361;28;20104;-73
2022/10/19 06:03:26;;;;;;;26.85;5.80;;;9.50;99.90;;;;;;5015810;28;20229;-73
2022/10/19 06:05:53;;;;;;;19.20;6.10;;;9.50;99.90;;;;;;5015371;28;20045;-72
2022/10/19 06:08:20;;;;;;;15.23;5.50;;;9.50;99.90;;;;;;5016197;28;20037;-73
2022/10/19 06:10:46;;;;;;;12.40;4.15;;;9.50;99.90;;;;;;5015968;28;20096;-70
2022/10/19 06:13:12;;;;;;;10.65;3.45;;;9.60;99.90;;;;;;5014998;28;20041;-70
2022/10/19 06:15:39;;;;;;;10.90;3.65;;;9.60;99.90;;;;;;5016421;28;20073;-70
2022/10/19 06:18:11;;;;;;;11.45;2.70;;;9.60;99.90;;;;;;5015283;28;20450;-70
2022/10/19 06:20:39;;;;;;;9.70;4.07;;;9.60;99.90;;;;;;5015794;28;20053;-71
2022/10/19 06:23:05;;;;;;;16.33;3.13;;;9.70;99.90;;;;;;5015706;28;20042;-71
2022/10/19 06:25:32;;;;;;;20.20;3.65;;;9.70;99.90;;;;;;5015020;28;20045;-71
2022/10/19 06:27:58;;;;;;;11.55;2.33;;;9.70;99.90;;;;;;5014768;28;20189;-71
2022/10/19 06:30:24;;;;;;;10.85;2.17;;;9.80;99.90;;;;;;5015785;28;20367;-71
2022/10/19 06:32:50;;;;;;;17.25;3.20;;;9.80;99.90;;;;;;5015658;28;20356;-72
2022/10/19 06:35:16;;;;;;;14.05;3.05;;;9.80;99.90;;;;;;5015322;28;20064;-70
2022/10/19 06:37:42;;;;;;;23.52;3.45;;;9.90;99.90;;;;;;5015688;28;20121;-73
2022/10/19 06:40:08;;;;;;;18.45;2.80;;;9.90;99.90;;;;;;5015540;28;20130;-73
2022/10/19 06:42:37;;;;;;;15.65;4.68;;;10.00;99.90;;;;;;5016086;28;20053;-71
2022/10/19 06:45:09;;;;;;;15.73;3.22;;;10.00;99.90;;;;;;5015644;28;20041;-71
2022/10/19 06:47:35;;;;;;;17.50;3.38;;;10.00;99.90;;;;;;5014887;28;20056;-71
2022/10/19 06:50:03;;;;;;;18.67;3.85;;;10.10;99.90;;;;;;5015542;28;20366;-72
2022/10/19 06:52:28;;;;;;;14.95;3.10;;;10.10;99.90;;;;;;5015238;28;20041;-71
2022/10/19 06:54:54;;;;;;;18.95;3.88;;;10.10;99.90;;;;;;5016153;28;20041;-71
2022/10/19 06:57:19;;;;;;;17.95;2.88;;;10.20;99.90;;;;;;5015175;28;20105;-72
2022/10/19 06:59:45;;;;;;;12.32;2.47;;;10.20;99.90;;;;;;5016052;28;20136;-71
2022/10/19 07:02:11;;;;;;;29.85;4.03;;;10.20;99.90;;;;;;5015318;28;20065;-71
2022/10/19 07:04:37;;;;;;;20.23;3.63;;;10.20;99.90;;;;;;5014490;28;20451;-72
2022/10/19 07:07:03;;;;;;;33.80;4.78;;;10.30;99.90;;;;;;5014992;28;20045;-71
2022/10/19 07:09:28;;;;;;;18.15;3.83;;;10.30;99.90;;;;;;5015138;28;20367;-72
2022/10/19 07:11:54;;;;;;;26.17;4.65;;;10.40;99.90;;;;;;4997882;28;20046;-73
2022/10/19 07:14:19;;;;;;;10.48;2.60;;;10.40;99.90;;;;;;5015069;28;20049;-72
2022/10/19 07:16:45;;;;;;;19.58;3.22;;;10.40;99.90;;;;;;5015073;28;20128;-71
2022/10/19 07:19:12;;;;;;;22.08;3.03;;;10.50;99.90;;;;;;5015034;28;20374;-71
2022/10/19 07:21:40;;;;;;;13.68;2.55;;;10.50;99.90;;;;;;5014783;28;20124;-71
2022/10/19 07:24:07;;;;;;;15.57;2.92;;;10.60;99.90;;;;;;5015384;28;20053;-71
2022/10/19 07:26:33;;;;;;;10.75;2.47;;;10.80;99.90;;;;;;5013691;28;20046;-71
2022/10/19 07:28:59;;;;;;;21.35;3.00;;;10.70;99.90;;;;;;5014968;28;20050;-72
2022/10/19 07:31:26;;;;;;;10.43;2.03;;;10.80;99.90;;;;;;5014977;28;20371;-71
2022/10/19 07:33:52;;;;;;;9.43;2.10;;;10.80;99.90;;;;;;5015089;28;20045;-72
2022/10/19 07:36:18;;;;;;;11.05;2.28;;;10.90;99.90;;;;;;5014861;28;20077;-71
2022/10/19 07:38:44;;;;;;;8.77;2.70;;;10.90;99.90;;;;;;5015356;28;20419;-73
2022/10/19 07:41:13;;;;;;;14.50;2.88;;;11.00;99.90;;;;;;5013966;28;20348;-70
2022/10/19 07:43:39;;;;;;;11.50;1.98;;;11.10;99.90;;;;;;5014845;28;20123;-72
2022/10/19 07:46:16;;;;;;;13.05;2.25;;;11.10;99.90;;;;;;5015132;28;20061;-71
2022/10/19 07:48:43;;;;;;;12.55;2.50;;;11.20;99.90;;;;;;5014682;28;20053;-72
2022/10/19 07:51:10;;;;;;;14.23;2.85;;;11.20;99.90;;;;;;5014529;28;20130;-72
2022/10/19 07:53:37;;;;;;;10.90;2.75;;;11.30;99.90;;;;;;5015318;28;20053;-71
2022/10/19 07:56:08;;;;;;;13.18;2.92;;;11.30;99.90;;;;;;5014025;28;20042;-71
2022/10/19 07:58:35;;;;;;;10.15;1.95;;;11.40;99.90;;;;;;5014503;28;20050;-71
2022/10/19 08:01:15;;;;;;;14.65;2.20;;;11.40;99.90;;;;;;5014639;28;20529;-71
2022/10/19 08:03:41;;;;;;;6.82;1.95;;;11.50;99.90;;;;;;5014378;28;20046;-72
2022/10/19 08:06:11;;;;;;;7.70;2.13;;;11.50;99.90;;;;;;5014307;28;20458;-71
2022/10/19 08:08:37;;;;;;;9.27;1.90;;;11.70;99.90;;;;;;5014507;28;20128;-72
2022/10/19 08:11:17;;;;;;;10.15;2.20;;;11.70;99.90;;;;;;5014351;28;20455;-71
2022/10/19 08:13:43;;;;;;;9.07;2.20;;;11.70;99.90;;;;;;5014531;28;20038;-71
2022/10/19 08:16:31;;;;;;;7.95;1.55;;;11.80;99.90;;;;;;5014499;28;20112;-72
2022/10/19 08:19:00;;;;;;;12.63;2.45;;;11.80;99.90;;;;;;5014445;28;20061;-73
2022/10/19 08:21:27;;;;;;;12.52;2.42;;;12.00;99.90;;;;;;5013658;28;20054;-71
2022/10/19 08:23:53;;;;;;;8.35;2.00;;;12.00;99.90;;;;;;5014437;28;20131;-71
2022/10/19 08:26:19;;;;;;;16.58;2.50;;;12.00;99.90;;;;;;5014407;28;20088;-71
2022/10/19 08:28:44;;;;;;;9.50;1.75;;;12.10;99.90;;;;;;5014572;28;20101;-73
2022/10/19 08:31:19;;;;;;;12.70;2.45;;;12.20;99.90;;;;;;5018024;28;20054;-72
2022/10/19 08:33:45;;;;;;;8.05;1.67;;;12.20;99.90;;;;;;5018186;28;20055;-73
2022/10/19 08:36:12;;;;;;;8.77;1.90;;;12.40;99.90;;;;;;5016264;28;20093;-71
2022/10/19 08:38:39;;;;;;;6.95;1.88;;;12.40;99.90;;;;;;5017827;28;20107;-71
2022/10/19 08:41:47;;;;;;;11.07;2.08;;;12.50;99.90;;;;;;5017478;28;20072;-71
2022/10/19 08:44:50;;;;;;;16.00;1.92;;;12.50;99.90;;;;;;5004194;28;20060;-71
2022/10/19 08:47:39;;;;;;;8.80;2.15;;;12.60;99.90;;;;;;5017334;28;20046;-72
2022/10/19 08:50:18;;;;;;;11.45;2.03;;;12.60;99.90;;;;;;5018004;28;20080;-71
2022/10/19 08:52:48;;;;;;;10.77;2.47;;;12.70;99.90;;;;;;5017720;28;20046;-72
2022/10/19 08:55:20;;;;;;;10.20;2.65;;;12.70;99.90;;;;;;5017359;28;20056;-73
2022/10/19 08:58:15;;;;;;;6.97;1.70;;;12.70;99.90;;;;;;5017314;28;20046;-73
2022/10/19 09:00:51;;;;;;;8.35;1.73;;;12.80;99.90;;;;;;5017870;28;20127;-70
2022/10/19 09:03:22;;;;;;;9.30;1.50;;;12.90;99.90;;;;;;5017365;28;20076;-71
2022/10/19 09:06:21;;;;;;;7.95;1.65;;;12.80;99.90;;;;;;5017358;28;20056;-71
2022/10/19 09:08:51;;;;;;;9.77;1.83;;;12.90;99.90;;;;;;5017363;28;20042;-71
2022/10/19 09:11:21;;;;;;;12.70;2.30;;;12.90;99.90;;;;;;5017175;28;20042;-71
2022/10/19 09:13:49;;;;;;;6.38;1.70;;;13.00;99.90;;;;;;5017484;28;20371;-71
2022/10/19 09:16:17;;;;;;;7.15;1.77;;;13.00;99.90;;;;;;5016347;28;20170;-71
2022/10/19 09:18:45;;;;;;;13.60;1.80;;;13.00;99.90;;;;;;5017449;28;20069;-71
2022/10/19 09:21:25;;;;;;;10.38;2.08;;;13.00;99.90;;;;;;5017031;28;20050;-72
2022/10/19 09:24:04;;;;;;;8.00;1.73;;;13.10;99.90;;;;;;5016159;28;20093;-72
2022/10/19 09:26:34;;;;;;;6.47;1.58;;;13.10;99.90;;;;;;5017309;28;20041;-72
2022/10/19 09:29:10;;;;;;;7.80;2.60;;;13.00;99.90;;;;;;5016792;28;20057;-72
2022/10/19 09:31:36;;;;;;;11.50;2.13;;;13.00;99.90;;;;;;5016680;28;20038;-71
2022/10/19 09:34:07;;;;;;;7.70;1.90;;;13.00;99.90;;;;;;5017072;28;20419;-71
2022/10/19 09:36:40;;;;;;;10.48;2.03;;;13.10;99.90;;;;;;5017276;28;20058;-71
2022/10/19 09:39:12;;;;;;;9.88;2.20;;;13.10;99.90;;;;;;5017383;28;20370;-71
2022/10/19 09:41:45;;;;;;;7.97;1.90;;;13.20;99.90;;;;;;5015521;28;20420;-72
2022/10/19 09:44:12;;;;;;;9.95;1.90;;;13.30;99.90;;;;;;5016584;28;20056;-71
2022/10/19 09:46:53;;;;;;;7.70;1.67;;;13.20;99.90;;;;;;5016478;28;20451;-74
2022/10/19 09:49:43;;;;;;;8.30;1.45;;;13.30;99.90;;;;;;5016590;28;20097;-71
2022/10/19 09:52:31;;;;;;;6.53;1.73;;;13.30;99.90;;;;;;5016415;28;20054;-72
2022/10/19 09:55:21;;;;;;;10.32;2.03;;;13.20;99.90;;;;;;5016592;28;20427;-72
2022/10/19 09:57:58;;;;;;;6.72;1.77;;;13.30;99.90;;;;;;5016178;28;20058;-71
2022/10/19 10:00:31;;;;;;;9.60;1.95;;;13.40;99.90;;;;;;5016297;28;20052;-72
2022/10/19 10:02:56;;;;;;;13.70;2.25;;;13.40;99.90;;;;;;5016293;28;20042;-72
2022/10/19 10:05:45;;;;;;;11.65;2.17;;;13.50;99.90;;;;;;5015955;28;20367;-71
2022/10/19 10:08:16;;;;;;;5.28;1.90;;;13.50;99.90;;;;;;5016152;28;20077;-72
2022/10/19 10:11:03;;;;;;;11.52;2.33;;;13.50;99.90;;;;;;5016004;28;20131;-72
2022/10/19 10:13:29;;;;;;;7.72;1.73;;;13.50;99.90;;;;;;5016104;28;20128;-72
2022/10/19 10:16:00;;;;;;;8.32;1.83;;;13.60;99.90;;;;;;5016242;28;20133;-72
2022/10/19 10:18:27;;;;;;;9.80;1.83;;;13.60;99.90;;;;;;5015997;28;20037;-72
2022/10/19 10:20:59;;;;;;;9.48;1.75;;;13.70;99.90;;;;;;5016066;28;20078;-72
2022/10/19 10:23:27;;;;;;;7.85;1.45;;;13.70;99.90;;;;;;5015593;28;20072;-72
2022/10/19 10:25:58;;;;;;;10.85;1.73;;;13.80;99.90;;;;;;5016195;28;20046;-71
2022/10/19 10:28:26;;;;;;;7.00;1.60;;;13.80;99.90;;;;;;5016369;28;20379;-72
2022/10/19 10:31:01;;;;;;;9.35;1.60;;;13.90;99.90;;;;;;5015820;28;20490;-72
2022/10/19 10:33:29;;;;;;;7.75;1.95;;;14.00;99.90;;;;;;5032990;28;20080;-71
2022/10/19 10:36:00;;;;;;;8.80;1.73;;;13.90;99.90;;;;;;5035073;28;20041;-72
2022/10/19 10:38:35;;;;;;;7.18;1.60;;;13.90;99.90;;;;;;5035478;28;20152;-73
2022/10/19 10:41:27;;;;;;;8.45;2.03;;;13.70;99.90;;;;;;5035643;28;20377;-71
2022/10/19 10:44:02;;;;;;;5.30;1.52;;;13.90;99.90;;;;;;5035126;28;20037;-71
2022/10/19 10:46:34;;;;;;;9.88;1.63;;;13.80;99.90;;;;;;5035705;28;20135;-72
2022/10/19 10:49:15;;;;;;;6.72;1.50;;;14.00;99.90;;;;;;5018899;28;20053;-71
2022/10/19 10:51:44;;;;;;;17.25;2.20;;;14.00;99.90;;;;;;5034851;28;20045;-72
2022/10/19 10:54:17;;;;;;;8.70;1.83;;;14.00;99.90;;;;;;5017908;28;20130;-73
2022/10/19 10:57:05;;;;;;;7.40;1.52;;;14.10;99.90;;;;;;5035067;28;20500;-73
2022/10/19 10:59:38;;;;;;;8.77;1.75;;;14.10;99.90;;;;;;5020865;28;20064;-71
2022/10/19 11:02:14;;;;;;;3.33;1.30;;;14.10;99.90;;;;;;5018159;28;20120;-71
2022/10/19 11:04:49;;;;;;;9.07;1.52;;;14.20;99.90;;;;;;5035107;28;20151;-73
2022/10/19 11:07:22;;;;;;;9.55;2.15;;;14.10;99.90;;;;;;5017305;28;20084;-72
2022/10/19 11:09:53;;;;;;;;;;;14.10;99.90;;;;;;5018605;28;20481;-73
2022/10/19 11:12:39;;;;;;;8.02;1.92;;;14.10;99.90;;;;;;5035167;28;19956;-73
2022/10/19 11:15:10;;;;;;;5.50;1.40;;;14.20;99.90;;;;;;5035006;28;20076;-71
2022/10/19 11:17:41;;;;;;;6.05;1.42;;;14.20;99.90;;;;;;5034666;28;20356;-72
2022/10/19 11:20:15;;;;;;;7.93;1.58;;;14.30;99.90;;;;;;5034840;28;20056;-72
2022/10/19 11:23:12;;;;;;;5.82;1.67;;;14.30;99.90;;;;;;5034463;28;20052;-72
2022/10/19 11:26:19;;;;;;;11.00;2.20;;;14.30;99.90;;;;;;5034631;28;20425;-71
2022/10/19 11:28:48;;;;;;;8.68;1.88;;;14.50;99.90;;;;;;5035181;28;20038;-73
2022/10/19 11:31:33;;;;;;;6.38;1.80;;;14.60;99.90;;;;;;5017433;28;20049;-73
2022/10/19 11:34:35;;;;;;;6.05;1.63;;;14.70;99.90;;;;;;5034721;28;20061;-72
2022/10/19 11:37:42;;;;;;;10.68;1.95;;;14.70;99.90;;;;;;5035205;28;20041;-75
2022/10/19 11:40:19;;;;;;;6.78;1.40;;;14.50;99.90;;;;;;5035182;28;20041;-73
2022/10/19 11:43:19;;;;;;;18.70;1.75;;;14.40;99.90;;;;;;5034627;28;20163;-72
2022/10/19 11:45:57;;;;;;;8.90;2.00;;;14.50;99.90;;;;;;5017709;28;20076;-73
2022/10/19 11:48:58;;;;;;;10.80;2.25;;;14.50;99.90;;;;;;5034561;28;20076;-72
2022/10/19 11:51:56;;;;;;;7.63;1.88;;;14.60;99.90;;;;;;5034549;28;20071;-71
2022/10/19 11:54:39;;;;;;;13.05;1.83;;;14.60;99.90;;;;;;4988977;28;20131;-72
2022/10/19 11:57:08;;;;;;;;;;;14.70;99.90;;;;;;5017480;28;20080;-71
2022/10/19 11:59:52;;;;;;;7.78;2.03;;;14.80;99.90;;;;;;5034417;28;19932;-72
2022/10/19 12:02:48;;;;;;;13.32;2.47;;;14.90;99.90;;;;;;5034421;28;20111;-72
2022/10/19 12:05:20;;;;;;;9.27;2.42;;;14.80;99.90;;;;;;5037003;28;20512;-72
2022/10/19 12:08:00;;;;;;;6.97;2.03;;;14.80;99.90;;;;;;5038360;28;20057;-72
2022/10/19 12:10:49;;;;;;;8.57;1.88;;;14.80;99.90;;;;;;5038155;28;20124;-74
2022/10/19 12:13:20;;;;;;;9.88;2.15;;;14.80;99.90;;;;;;5021219;28;20061;-72
2022/10/19 12:15:54;;;;;;;7.65;2.03;;;14.80;99.90;;;;;;5038139;28;20382;-72
2022/10/19 12:18:43;;;;;;;8.75;1.98;;;14.90;99.90;;;;;;5021238;28;20053;-72
2022/10/19 12:21:28;;;;;;;9.45;2.10;;;14.90;99.90;;;;;;5038066;28;20053;-72
2022/10/19 12:23:57;;;;;;;7.45;1.70;;;14.80;99.90;;;;;;5020845;28;20072;-72
2022/10/19 12:26:24;;;;;;;7.75;1.60;;;14.70;99.90;;;;;;5037816;28;20084;-72
2022/10/19 12:28:54;;;;;;;8.18;2.13;;;14.60;99.90;;;;;;5037918;28;20053;-72
2022/10/19 12:31:22;;;;;;;10.57;2.28;;;14.50;99.90;;;;;;5037675;28;20037;-72
2022/10/19 12:33:58;;;;;;;9.63;1.88;;;14.40;99.90;;;;;;5020920;28;20143;-72
2022/10/19 12:37:05;;;;;;;10.02;2.08;;;14.20;99.90;;;;;;5037705;28;20059;-71
2022/10/19 12:39:56;;;;;;;14.27;1.73;;;14.20;99.90;;;;;;4999249;28;20057;-72
2022/10/19 12:42:32;;;;;;;10.13;2.63;;;14.20;99.90;;;;;;5037821;28;20115;-71
2022/10/19 12:45:17;;;;;;;8.98;2.30;;;14.40;99.90;;;;;;5020311;28;20143;-71
2022/10/19 12:48:05;;;;;;;7.40;1.75;;;14.50;99.90;;;;;;5037923;28;20053;-71
2022/10/19 12:50:49;;;;;;;7.03;1.63;;;14.50;99.90;;;;;;5037492;28;20041;-71
2022/10/19 12:53:25;;;;;;;;;;;14.40;99.90;;;;;;5021398;28;20045;-71
2022/10/19 12:56:08;;;;;;;4.82;1.40;;;14.50;99.90;;;;;;5037695;28;20016;-71
2022/10/19 12:58:45;;;;;;;10.73;2.38;;;14.50;99.90;;;;;;5037409;28;20478;-71
2022/10/19 13:01:27;;;;;;;9.38;1.80;;;14.50;99.90;;;;;;5020374;28;20438;-72
2022/10/19 13:04:09;;;;;;;6.95;1.50;;;14.60;99.90;;;;;;5037274;28;20072;-72
2022/10/19 13:06:48;;;;;;;6.32;1.77;;;14.50;99.90;;;;;;5020087;28;20049;-72
2022/10/19 13:09:36;;;;;;;13.52;1.85;;;14.50;99.90;;;;;;5037143;28;20057;-72